Flight Track Log - Related Links

Times and Time Zones

All times are in EDT time to prevent confusion due to time zone crossing. See the TRS1 flight status page for this flight to view local times or setup timezone preferences in your user account.

Time Position Orientation Groundspeed Altitude Reporting Facility
EDT Latitude Longitude Course Direction KTS MPH feet Rate Location/Type
Mon 09:33:39 AM 39.1833 -76.7667 288° West 217 250 2,700  Level Potomac TRACON
Mon 09:34:33 AM 39.2000 -76.8333 288° West 263 303 5,500 3,444 Climbing Potomac TRACON
Mon 09:35:27 AM 39.2167 -76.9333 282° West 261 300 8,900 3,211 Climbing Potomac TRACON
Mon 09:36:27 AM 39.2167 -77.0333 270° West 289 333 11,600 2,619 Climbing Potomac TRACON
Mon 09:37:33 AM 39.2000 -77.1500 260° West 342 394 14,400 2,550 Climbing Potomac TRACON
Mon 09:38:27 AM 39.1333 -77.2167 218° Southwest 366 421 16,700 2,684 Climbing Potomac TRACON
Mon 09:39:27 AM 39.0333 -77.3000 213° Southwest 380 437 19,500 2,526 Climbing Potomac TRACON
Mon 09:40:21 AM 38.9500 -77.3667 212° Southwest 402 463 21,500 1,842 Climbing Potomac TRACON
Mon 09:41:21 AM 38.8667 -77.4500 218° Southwest 415 478 23,000 744 Climbing Potomac TRACON
Mon 09:42:22 AM 38.7667 -77.5167 207° Southwest 408 470 23,000  Level Potomac TRACON
Mon 09:43:52 AM 38.6375 -77.6328 215° Southwest 410 472 23,000  Level Washington Center
Mon 09:44:53 AM 38.5444 -77.7125 214° Southwest 410 472 23,000 443 Level Washington Center
Mon 09:45:54 AM 38.4514 -77.7922 214° Southwest 405 466 23,900 1,261 Climbing Washington Center
Mon 09:46:52 AM 38.3539 -77.8739 213° Southwest 405 466 25,500 1,059 Climbing Washington Center
Mon 09:47:53 AM 38.2564 -77.9556 213° Southwest 416 479 26,000 246 Climbing Washington Center
Mon 09:48:54 AM 38.1567 -78.0369 213° Southwest 422 486 26,000 496 Level Washington Center
Mon 09:49:54 AM 38.0569 -78.1208 214° Southwest 422 486 27,000 504 Climbing Washington Center
Mon 09:50:53 AM 37.9656 -78.2047 216° Southwest 415 478 27,000  Level Washington Center
Mon 09:51:53 AM 37.8631 -78.3036 217° Southwest 421 484 27,000 250 Level Washington Center
Mon 09:52:53 AM 37.7672 -78.3894 215° Southwest 421 484 27,500 893 Climbing Washington Center
Mon 09:53:54 AM 37.6714 -78.4831 218° Southwest 426 490 28,800 1,537 Climbing Washington Center
Mon 09:54:54 AM 37.5731 -78.5736 216° Southwest 437 503 30,600 1,374 Climbing Washington Center
Mon 09:56:05 AM 37.4833 -78.6564 216° Southwest 442 509 31,800 1,364 Climbing Washington Center
Mon 09:57:06 AM 37.3636 -78.7692 217° Southwest 447 514 33,600 1,765 Climbing Washington Center
Mon 09:58:04 AM 37.2611 -78.8617 216° Southwest 452 520 35,300 1,550 Climbing Washington Center
Mon 09:59:06 AM 37.1647 -78.9539 217° Southwest 452 520 36,700 1,279 Climbing Washington Center
Mon 10:00:06 AM 37.0681 -79.0433 216° Southwest 441 507 37,900 661 Climbing Washington Center
Mon 10:01:04 AM 36.9611 -79.1400 216° Southwest 441 507 38,000 51 Climbing Washington Center
Mon 10:02:04 AM 36.8622 -79.2314 216° Southwest 441 507 38,000  Level Washington Center
Mon 10:03:06 AM 36.7636 -79.3203 216° Southwest 441 507 38,000  Level Washington Center
Mon 10:04:06 AM 36.6647 -79.4114 216° Southwest 441 507 38,000  Level Washington Center
Mon 10:05:44 AM 36.5000 -79.5606 216° Southwest 437 503 38,000  Level Atlanta Center
Mon 10:06:44 AM 36.4033 -79.6511 217° Southwest 437 503 38,000  Level Atlanta Center
Mon 10:07:44 AM 36.3000 -79.7417 215° Southwest 442 509 38,000  Level Atlanta Center
Mon 10:08:44 AM 36.2011 -79.8319 216° Southwest 442 509 38,000  Level Atlanta Center
Mon 10:09:44 AM 36.1119 -79.9136 217° Southwest 449 517 38,000  Level Atlanta Center
Mon 10:10:44 AM 36.0042 -79.9936 211° Southwest 449 517 38,000  Level Atlanta Center
Mon 10:11:44 AM 35.8892 -80.0531 203° Southwest 444 511 38,000  Level Atlanta Center
Mon 10:12:44 AM 35.7742 -80.1072 201° Southwest 449 517 38,000  Level Atlanta Center
Mon 10:13:44 AM 35.6450 -80.1775 204° Southwest 454 522 38,000  Level Atlanta Center
Mon 10:14:44 AM 35.5300 -80.2364 203° Southwest 454 522 38,000  Level Atlanta Center
Mon 10:15:44 AM 35.4150 -80.2953 203° Southwest 454 522 38,000  Level Atlanta Center
Mon 10:16:44 AM 35.2978 -80.3514 201° Southwest 449 517 38,000  Level Atlanta Center
Mon 10:18:20 AM 35.1206 -80.4386 202° Southwest 454 522 38,000  Level Jacksonville Center
Mon 10:19:19 AM 34.9944 -80.5031 203° Southwest 454 522 38,000  Level Jacksonville Center
Mon 10:20:19 AM 34.8747 -80.5622 202° Southwest 454 522 38,000  Level Jacksonville Center
Mon 10:21:20 AM 34.7672 -80.6181 203° Southwest 443 510 38,000  Level Jacksonville Center
Mon 10:22:20 AM 34.6492 -80.6717 200° South 443 510 38,000  Level Jacksonville Center
Mon 10:23:19 AM 34.5294 -80.7303 202° Southwest 463 533 38,000  Level Jacksonville Center
Mon 10:24:20 AM 34.4136 -80.7883 202° Southwest 452 520 38,000  Level Jacksonville Center
Mon 10:25:19 AM 34.2975 -80.8442 202° Southwest 452 520 38,000  Level Jacksonville Center
Mon 10:26:20 AM 34.1878 -80.8994 203° Southwest 438 504 38,000  Level Jacksonville Center
Mon 10:27:20 AM 34.0700 -80.9572 202° Southwest 443 510 38,000  Level Jacksonville Center
Mon 10:28:19 AM 33.9517 -81.0125 201° Southwest 456 525 38,000  Level Jacksonville Center
Mon 10:29:19 AM 33.8439 -81.0597 200° South 456 525 38,000  Level Jacksonville Center
Mon 10:30:20 AM 33.7136 -81.1297 204° Southwest 461 531 38,000  Level Jacksonville Center
Mon 10:31:19 AM 33.5975 -81.1869 202° Southwest 467 537 38,000  Level Jacksonville Center
Mon 10:32:20 AM 33.4772 -81.2442 202° Southwest 467 537 38,000  Level Jacksonville Center
Mon 10:33:20 AM 33.3611 -81.3033 203° Southwest 467 537 38,000  Level Jacksonville Center
Mon 10:34:20 AM 33.2553 -81.3525 201° Southwest 462 532 38,000  Level Jacksonville Center
Mon 10:35:20 AM 33.1389 -81.4092 202° Southwest 462 532 38,000  Level Jacksonville Center
Mon 10:36:20 AM 33.0228 -81.4656 202° Southwest 456 525 38,000  Level Jacksonville Center
Mon 10:37:20 AM 32.9044 -81.5244 203° Southwest 451 519 38,000  Level Jacksonville Center
Mon 10:38:19 AM 32.7903 -81.5803 202° Southwest 457 526 38,000  Level Jacksonville Center
Mon 10:39:20 AM 32.6781 -81.6364 203° Southwest 452 520 38,000  Level Jacksonville Center
Mon 10:40:19 AM 32.5492 -81.6972 202° Southwest 452 520 38,000  Level Jacksonville Center
Mon 10:41:19 AM 32.4411 -81.7478 202° Southwest 452 520 38,000  Level Jacksonville Center
Mon 10:42:20 AM 32.3081 -81.8086 201° Southwest 452 520 38,000  Level Jacksonville Center
Mon 10:43:19 AM 32.1872 -81.8517 197° South 460 529 38,000  Level Jacksonville Center
Mon 10:44:20 AM 32.0769 -81.8972 199° South 460 529 38,000  Level Jacksonville Center
Mon 10:45:19 AM 31.9439 -81.9475 198° South 466 536 38,000  Level Jacksonville Center
Mon 10:46:19 AM 31.8356 -81.9878 198° South 461 531 38,000  Level Jacksonville Center
Mon 10:47:20 AM 31.7044 -82.0403 199° South 461 531 38,000  Level Jacksonville Center
Mon 10:48:20 AM 31.5961 -82.0878 200° South 461 531 38,000  Level Jacksonville Center
Mon 10:49:20 AM 31.4772 -82.1325 198° South 461 531 38,000  Level Jacksonville Center
Mon 10:50:20 AM 31.3586 -82.1772 198° South 455 524 38,000  Level Jacksonville Center
Mon 10:51:19 AM 31.2419 -82.2219 198° South 450 518 38,000  Level Jacksonville Center
Mon 10:52:20 AM 31.1211 -82.2689 198° South 450 518 38,000 450 Level Jacksonville Center
Mon 10:53:19 AM 31.0003 -82.3158 198° South 455 524 38,900 504 Climbing Jacksonville Center
Mon 10:54:19 AM 30.8814 -82.3600 198° South 455 524 39,000 50 Climbing Jacksonville Center
Mon 10:55:19 AM 30.7606 -82.4042 197° South 455 524 39,000  Level Jacksonville Center
Mon 10:56:20 AM 30.6375 -82.4508 198° South 460 529 39,000  Level Jacksonville Center
Mon 10:57:20 AM 30.5186 -82.4972 199° South 460 529 39,000  Level Jacksonville Center
Mon 10:58:20 AM 30.3850 -82.5483 198° South 466 536 39,000  Level Jacksonville Center
Mon 10:59:19 AM 30.2642 -82.5919 197° South 466 536 39,000  Level Jacksonville Center
Mon 11:00:20 AM 30.1453 -82.6381 199° South 461 531 39,000  Level Jacksonville Center
Mon 11:01:20 AM 30.0283 -82.6767 196° South 455 524 39,000  Level Jacksonville Center
Mon 11:02:19 AM 29.9011 -82.7297 200° South 471 542 39,000  Level Jacksonville Center
Mon 11:03:20 AM 29.7800 -82.7731 197° South 465 535 39,000  Level Jacksonville Center
Mon 11:04:19 AM 29.6589 -82.8208 199° South 456 525 39,000  Level Jacksonville Center
Mon 11:05:20 AM 29.5378 -82.8639 197° South 461 531 39,000  Level Jacksonville Center
Mon 11:06:19 AM 29.4294 -82.8997 196° South 456 525 39,000  Level Jacksonville Center
Mon 11:07:19 AM 29.3083 -82.9450 198° South 456 525 39,000  Level Jacksonville Center
Mon 11:08:19 AM 29.1872 -82.9900 198° South 461 531 39,000  Level Jacksonville Center
Mon 11:09:20 AM 29.0681 -83.0350 198° South 461 531 39,000  Level Jacksonville Center
Mon 11:10:19 AM 28.9469 -83.0800 198° South 461 531 39,000  Level Jacksonville Center
Mon 11:12:18 AM 28.7103 -83.1669 198° South 471 542 39,000  Level Miami Center
Mon 11:13:18 AM 28.5917 -83.2100 198° South 465 535 39,000  Level Miami Center
Mon 11:14:17 AM 28.4731 -83.2550 198° South 460 529 39,000  Level Miami Center
Mon 11:15:18 AM 28.3503 -83.2975 197° South 460 529 39,000  Level Miami Center
Mon 11:16:17 AM 28.2292 -83.3447 199° South 460 529 39,000  Level Miami Center
Mon 11:17:17 AM 28.1083 -83.3872 197° South 460 529 39,000 -50 Level Miami Center
Mon 11:18:17 AM 27.9911 -83.4414 202° Southwest 455 524 38,900 -545 Descending Miami Center
Mon 11:19:18 AM 27.9092 -83.5472 229° Southwest 444 511 37,900 -450 Descending Miami Center
Mon 11:20:17 AM 27.8269 -83.6572 230° Southwest 443 510 38,000 50 Climbing Miami Center
Mon 11:21:18 AM 27.7447 -83.7625 229° Southwest 456 525 38,000  Level Miami Center
Mon 11:22:18 AM 27.6667 -83.8678 230° Southwest 456 525 38,000  Level Miami Center
Mon 11:24:23 AM 27.5008 -84.0958 231° Southwest 444 511 38,000  Level Houston Center
Mon 11:25:25 AM 27.4211 -84.2000 229° Southwest 442 509 38,000  Level Houston Center
Mon 11:26:27 AM 27.3408 -84.3061 230° Southwest 444 511 38,000  Level Houston Center
Mon 11:27:29 AM 27.2631 -84.4108 230° Southwest 441 507 38,000  Level Houston Center
Mon 11:28:31 AM 27.1669 -84.5358 229° Southwest 439 505 38,000  Level Houston Center
Mon 11:29:33 AM 27.0883 -84.6386 229° Southwest 435 501 38,000  Level Houston Center
Mon 11:30:36 AM 27.0100 -84.7411 229° Southwest 434 499 38,000  Level Houston Center
Mon 11:31:38 AM 26.9319 -84.8439 230° Southwest 434 499 38,000  Level Houston Center
Mon 11:32:40 AM 26.8539 -84.9458 229° Southwest 432 497 38,000  Level Houston Center
Mon 11:33:42 AM 26.7758 -85.0472 229° Southwest 430 495 38,000  Level Houston Center
Mon 11:34:44 AM 26.6819 -85.1694 229° Southwest 432 497 38,000  Level Houston Center
Mon 11:35:46 AM 26.6039 -85.2700 229° Southwest 429 494 38,000  Level Houston Center
Mon 11:36:48 AM 26.5244 -85.3711 229° Southwest 433 498 38,000  Level Houston Center
Mon 11:37:50 AM 26.4467 -85.4736 230° Southwest 434 499 38,000  Level Houston Center
Mon 11:38:53 AM 26.3675 -85.5753 229° Southwest 435 501 38,000  Level Houston Center
Mon 11:39:55 AM 26.2722 -85.6969 229° Southwest 434 499 38,000  Level Houston Center
Mon 11:40:57 AM 26.1928 -85.7983 229° Southwest 435 501 38,000  Level Houston Center
Mon 11:41:59 AM 26.1142 -85.8981 229° Southwest 430 495 38,000  Level Houston Center
Mon 11:43:26 AM 25.9906 -86.0217 222° Southwest 430 495 38,000  Level Houston Center
Mon 11:45:00 AM 25.8236 -86.1068 212° Southwest  Level FlightAware Approximate
Mon 11:52:00 AM 25.1225 -86.5802 211° Southwest  Level FlightAware Approximate
Mon 11:53:00 AM 25.0220 -86.6469 211° Southwest  Level FlightAware Approximate
Mon 11:54:00 AM 24.9214 -86.7135 211° Southwest  Level FlightAware Approximate
Mon 11:55:00 AM 24.8208 -86.7800 211° Southwest  Level FlightAware Approximate
Mon 11:56:00 AM 24.7202 -86.8464 211° Southwest  Level FlightAware Approximate
Mon 11:57:00 AM 24.6196 -86.9127 211° Southwest  Level FlightAware Approximate
Mon 11:58:00 AM 24.5189 -86.9789 211° Southwest  Level FlightAware Approximate
Mon 11:59:00 AM 24.4182 -87.0450 211° Southwest  Level FlightAware Approximate
Mon 12:00:00 PM 24.3175 -87.1110 211° Southwest  Level FlightAware Approximate
Mon 12:01:00 PM 24.2198 -87.1821 215° Southwest  Level FlightAware Approximate
Mon 12:02:00 PM 24.1237 -87.2559 215° Southwest  Level FlightAware Approximate
Mon 12:03:00 PM 24.0276 -87.3295 215° Southwest  Level FlightAware Approximate
Mon 12:04:00 PM 23.9314 -87.4030 215° Southwest  Level FlightAware Approximate
Mon 12:05:00 PM 23.8352 -87.4764 215° Southwest  Level FlightAware Approximate
Mon 12:06:00 PM 23.7390 -87.5497 215° Southwest  Level FlightAware Approximate
Mon 12:07:00 PM 23.6429 -87.6232 215° Southwest  Level FlightAware Approximate
Mon 12:08:00 PM 23.5469 -87.6966 215° Southwest  Level FlightAware Approximate
Mon 12:09:00 PM 23.4508 -87.7700 215° Southwest  Level FlightAware Approximate
Mon 12:10:00 PM 23.3461 -87.7397 155° Southeast  Level FlightAware Approximate
Mon 12:11:00 PM 23.2326 -87.7097 160° South  Level FlightAware Approximate
Mon 12:12:00 PM 23.1226 -87.6655 160° South  Level FlightAware Approximate
Mon 12:13:00 PM 23.0125 -87.6215 160° South  Level FlightAware Approximate
Mon 12:14:00 PM 22.9024 -87.5775 160° South  Level FlightAware Approximate
Mon 12:15:00 PM 22.7923 -87.5335 160° South  Level FlightAware Approximate
Mon 12:16:00 PM 22.6854 -87.4854 137° Southeast  Level FlightAware Approximate
Mon 12:17:00 PM 22.5758 -87.4409 161° South  Level FlightAware Approximate
Mon 12:18:00 PM 22.4649 -87.3994 163° South  Level FlightAware Approximate
Mon 12:19:00 PM 22.3528 -87.3620 163° South  Level FlightAware Approximate
Mon 12:20:00 PM 22.2407 -87.3247 163° South  Level FlightAware Approximate
Mon 12:21:00 PM 22.1299 -87.2832 160° South  Level FlightAware Approximate
Mon 12:22:00 PM 22.0194 -87.2407 160° South  Level FlightAware Approximate
Mon 12:23:00 PM 21.9089 -87.1982 160° South  Level FlightAware Approximate
Mon 12:24:00 PM 21.7984 -87.1558 160° South  Level FlightAware Approximate
Mon 12:25:00 PM 21.6858 -87.1207 164° South  Level FlightAware Approximate
Mon 12:26:00 PM 21.5784 -87.0755 161° South  Level FlightAware Approximate
Mon 12:27:00 PM 21.4673 -87.0351 161° South  Level FlightAware Approximate
Mon 12:28:00 PM 21.3557 -86.9963 163° South  Level FlightAware Approximate
Mon 12:29:00 PM 21.2437 -86.9590 163° South  Level FlightAware Approximate
Mon 12:30:00 PM 21.1344 -86.9138 160° South  Level FlightAware Approximate
Mon 12:31:00 PM 21.0365 -86.8771 160° South  Level Estimated
Mon 12:32:00 PM 21.0365 -86.8771 160° South  Level Estimated
Mon 12:33:00 PM 21.0365 -86.8771 160° South  Level Estimated
Mon 12:34:00 PM 21.0365 -86.8771 160° South  Level Estimated
Mon 12:35:00 PM 21.0365 -86.8771 160° South  Level Estimated
Mon 12:36:00 PM 21.0365 -86.8771 160° South  Level Estimated
Mon 12:37:00 PM 21.0365 -86.8771 160° South  Level Estimated
Mon 12:38:00 PM 21.0365 -86.8771 160° South  Level Estimated
Mon 12:39:00 PM 21.0365 -86.8771 160° South  Level Estimated
Mon 12:40:00 PM 21.0365 -86.8771 160° South  Level Estimated
Mon 12:41:00 PM 21.0365 -86.8771 160° South  Level Estimated
Mon 12:42:00 PM 21.0365 -86.8771 160° South  Level Estimated
Mon 12:43:00 PM 21.0365 -86.8771 160° South  Level Estimated
Mon 12:44:00 PM 21.0365 -86.8771 160° South  Level Estimated
Mon 12:45:00 PM 21.0365 -86.8771 160° South  Level Estimated
Mon 12:46:00 PM 21.0365 -86.8771 160° South  Level Estimated
Mon 12:47:00 PM 21.0365 -86.8771 160° South  Level Estimated
Mon 12:48:00 PM 21.0365 -86.8771 160° South  Level Estimated
Mon 12:49:00 PM 21.0365 -86.8771 160° South  Level Estimated
Mon 12:50:00 PM 21.0365 -86.8771 160° South  Level Estimated
Mon 12:51:00 PM 21.0365 -86.8771 160° South  Level Estimated
Mon 12:52:00 PM 21.0365 -86.8771 160° South  Level Estimated
Mon 12:53:00 PM 21.0365 -86.8771 160° South  Level Estimated
Mon 12:54:00 PM 21.0365 -86.8771 160° South  Level Estimated

Login

Don't have an account? Register now (free) for customized features, flight alerts, and more!